Time;durP1;ratioP1;P1;durP2;ratioP2;P2;SDS_P1;SDS_P2;PMS_P1;PMS_P2;Temp;Humidity;BMP_temperature;BMP_pressure;BME280_temperature;BME280_humidity;BME280_pressure;Samples;Min_cycle;Max_cycle;Signal;HPM_P1;HPM_P2
2021/12/24 00:00:30;;;;;;;4.87;2.10;;;;;;;-145.69;92.11;71517.81;5052459;28;20199;-76
2021/12/24 00:02:57;;;;;;;2.50;1.40;;;;;;;-145.69;92.64;71533.72;5049574;28;20555;-76
2021/12/24 00:05:24;;;;;;;3.77;1.80;;;;;;;-145.69;94.25;71569.53;5032783;28;20204;-76
2021/12/24 00:07:53;;;;;;;4.40;1.40;;;;;;;-145.69;96.03;71579.50;5032850;28;20681;-76
2021/12/24 00:10:24;;;;;;;4.17;1.73;;;;;;;-145.69;94.62;71559.59;5038852;28;20211;-76
2021/12/24 00:12:59;;;;;;;5.47;2.00;;;;;;;-145.69;94.98;71577.50;5052648;28;20563;-76
2021/12/24 00:15:49;;;;;;;2.10;1.50;;;;;;;-145.69;94.50;71557.59;5052883;28;20229;-77
2021/12/24 00:18:29;;;;;;;4.33;2.07;;;;;;;-145.69;94.55;71551.63;5052811;28;20231;-76
2021/12/24 00:37:26;;;;;;;4.80;1.80;;;;;;;-145.69;96.14;71561.59;5052683;28;20597;-76
2021/12/24 00:40:02;;;;;;;3.10;1.50;;;;;;;-145.69;97.09;71577.50;5052081;28;20570;-76
2021/12/24 00:42:29;;;;;;;4.37;2.00;;;;;;;-145.69;96.49;71563.56;5052708;28;20199;-76
2021/12/24 00:44:56;;;;;;;3.87;1.60;;;;;;;-145.69;93.99;71543.69;5052564;28;20278;-76
2021/12/24 00:47:22;;;;;;;5.57;1.77;;;;;;;-145.69;93.47;71547.66;5052550;28;20203;-77
2021/12/24 00:49:50;;;;;;;5.40;1.60;;;;;;;-145.69;94.81;71553.63;5053971;28;20210;-76
2021/12/24 00:52:33;;;;;;;2.90;1.57;;;;;;;-145.69;95.27;71569.53;5055982;28;20222;-76
2021/12/24 00:55:09;;;;;;;3.03;1.77;;;;;;;-145.69;96.14;71581.50;5056199;28;20593;-76
2021/12/24 00:57:38;;;;;;;2.93;1.47;;;;;;;-145.69;95.44;71561.59;5056516;28;20207;-76
2021/12/24 01:00:08;;;;;;;4.50;1.40;;;;;;;-145.69;93.07;71533.72;5055850;28;20223;-76
2021/12/24 01:02:40;;;;;;;2.17;1.30;;;;;;;-145.69;94.05;71563.56;5055986;28;20199;-77
2021/12/24 01:05:10;;;;;;;5.50;1.37;;;;;;;-145.69;92.14;71523.78;5055973;28;20203;-76
2021/12/24 01:07:39;;;;;;;1.50;1.13;;;;;;;-145.69;91.89;71529.75;5056180;28;20203;-75
2021/12/24 01:10:08;;;;;;;4.73;1.90;;;;;;;-145.69;91.19;71529.75;5055849;28;20613;-76
2021/12/24 01:12:35;;;;;;;4.20;2.00;;;;;;;-145.69;90.80;71521.78;5055614;28;20725;-76
2021/12/24 01:15:03;;;;;;;3.70;1.77;;;;;;;-145.69;90.16;71527.75;5055800;28;20230;-76
2021/12/24 01:17:36;;;;;;;3.83;1.60;;;;;;;-145.69;89.06;71509.84;5055891;28;20294;-75
2021/12/24 01:20:13;;;;;;;4.83;1.93;;;;;;;-145.69;88.49;71509.84;5055978;28;20290;-76
2021/12/24 01:23:25;;;;;;;3.03;1.50;;;;;;;-145.69;88.15;71505.88;5055848;28;20294;-76
2021/12/24 01:25:53;;;;;;;4.93;1.60;;;;;;;-145.69;87.95;71509.84;5055867;28;20245;-76
2021/12/24 01:39:23;;;;;;;7.77;1.43;;;;;;;-145.69;87.92;71511.84;5041575;28;20249;-75
2021/12/24 01:44:35;;;;;;;6.13;1.70;;;;;;;-145.69;90.18;71521.78;5055282;28;20202;-76
2021/12/24 01:47:05;;;;;;;2.30;1.40;;;;;;;-145.69;90.21;71519.81;5055118;28;20715;-76
2021/12/24 01:49:32;;;;;;;3.93;1.33;;;;;;;-145.69;88.94;71499.91;5055079;28;20202;-76
2021/12/24 01:51:59;;;;;;;4.97;1.33;;;;;;;-145.69;89.21;71483.97;5055357;28;20209;-76
2021/12/24 01:54:27;;;;;;;2.03;1.30;;;;;;;-145.69;89.68;71482.00;5055055;28;20234;-76
2021/12/24 01:56:54;;;;;;;3.67;1.50;;;;;;;-145.69;89.59;71466.06;5055133;28;20604;-76
2021/12/24 01:59:20;;;;;;;6.70;1.30;;;;;;;-145.69;88.95;71460.09;5054656;28;20294;-76
2021/12/24 02:01:49;;;;;;;1.67;1.23;;;;;;;-145.69;89.60;71462.09;5054922;28;20195;-76
2021/12/24 02:04:16;;;;;;;2.20;1.50;;;;;;;-145.69;90.27;71458.09;5054949;28;20290;-76
2021/12/24 02:06:43;;;;;;;3.47;1.40;;;;;;;-145.69;90.35;71466.06;5054958;28;20207;-76
2021/12/24 02:09:11;;;;;;;2.77;1.60;;;;;;;-145.69;89.41;71438.22;5054525;28;20191;-76
2021/12/24 02:11:41;;;;;;;2.63;1.30;;;;;;;-145.69;88.53;71426.28;5054075;28;20571;-76
2021/12/24 02:14:09;;;;;;;4.27;1.53;;;;;;;-145.69;90.42;71444.19;5054246;28;20242;-76
2021/12/24 02:30:41;;;;;;;2.30;1.40;;;;;;;-145.69;90.11;71418.31;5032284;28;20744;-75
2021/12/24 02:33:08;;;;;;;3.57;1.73;;;;;;;-145.69;89.33;71398.41;5044533;28;20211;-76
2021/12/24 02:35:35;;;;;;;2.70;1.43;;;;;;;-145.69;89.94;71394.44;5054422;28;20215;-76
2021/12/24 02:38:04;;;;;;;2.90;1.90;;;;;;;-145.69;88.77;71386.47;5054361;28;20206;-76
2021/12/24 02:40:32;;;;;;;3.23;1.70;;;;;;;-145.69;89.97;71398.41;5053990;28;20544;-76
2021/12/24 02:42:59;;;;;;;5.73;1.67;;;;;;;-145.69;88.70;71378.50;5054363;28;20226;-75
2021/12/24 02:45:28;;;;;;;4.47;1.67;;;;;;;-145.69;89.31;71382.50;5054139;28;20231;-76
2021/12/24 02:48:11;;;;;;;4.67;1.60;;;;;;;-145.69;89.21;71388.47;5054242;28;20238;-74
2021/12/24 02:56:13;;;;;;;3.33;1.70;;;;;;;-145.69;90.72;71394.44;5054155;28;20202;-75
2021/12/24 02:58:42;;;;;;;4.43;1.57;;;;;;;-145.69;90.45;71390.47;5053973;28;20253;-76
2021/12/24 03:01:10;;;;;;;2.40;1.80;;;;;;;-145.69;89.72;71370.56;5053588;28;20202;-76
2021/12/24 03:03:37;;;;;;;3.90;1.90;;;;;;;-145.69;89.88;71380.50;5053612;28;20651;-75
2021/12/24 03:06:04;;;;;;;4.07;1.77;;;;;;;-145.69;90.01;71386.47;5053496;28;20727;-75
2021/12/24 03:08:35;;;;;;;3.03;1.50;;;;;;;-145.69;88.67;71356.63;5053654;28;20203;-76
2021/12/24 03:11:01;;;;;;;3.40;1.60;;;;;;;-145.69;87.75;71342.69;5053789;28;20203;-75
2021/12/24 03:13:28;;;;;;;3.97;1.50;;;;;;;-145.69;89.49;71374.53;5052703;28;20235;-75
2021/12/24 03:15:58;;;;;;;4.60;1.63;;;;;;;-145.69;88.64;71348.66;5053421;28;20204;-75
2021/12/24 03:18:27;;;;;;;3.03;1.80;;;;;;;-145.69;89.22;71354.63;5053456;28;20265;-75
2021/12/24 03:21:01;;;;;;;2.63;1.60;;;;;;;-145.69;90.63;71364.59;5053603;28;20203;-75
2021/12/24 03:23:36;;;;;;;2.57;1.80;;;;;;;-145.69;90.86;71372.53;5053562;28;20204;-75
2021/12/24 03:26:05;;;;;;;2.93;1.50;;;;;;;-145.69;91.18;71370.56;5053379;28;20294;-75
2021/12/24 03:28:32;;;;;;;2.33;1.40;;;;;;;-145.69;91.50;71382.50;5053083;28;20674;-75
2021/12/24 03:30:59;;;;;;;2.90;1.17;;;;;;;-145.69;92.01;71382.50;5053471;28;20223;-75
2021/12/24 03:33:26;;;;;;;2.93;1.40;;;;;;;-145.69;90.91;71358.63;5053284;28;20200;-75
2021/12/24 03:35:52;;;;;;;2.30;1.27;;;;;;;-145.69;91.25;71362.59;5053364;28;20278;-75
2021/12/24 03:38:19;;;;;;;4.00;1.37;;;;;;;-145.69;91.92;71362.59;5053137;28;20207;-75
2021/12/24 03:40:45;;;;;;;1.80;1.37;;;;;;;-145.69;92.63;71380.50;5053203;28;20199;-75
2021/12/24 03:43:13;;;;;;;4.13;1.80;;;;;;;-145.69;92.15;71376.53;5052973;28;20659;-75
2021/12/24 03:45:47;;;;;;;2.30;1.50;;;;;;;-145.69;92.58;71374.53;5053408;28;20207;-75
2021/12/24 03:48:19;;;;;;;2.47;1.47;;;;;;;-145.69;92.76;71386.47;5053015;28;20203;-75
2021/12/24 03:50:53;;;;;;;2.40;1.50;;;;;;;-145.69;93.11;71384.47;5053150;28;20230;-75
2021/12/24 03:56:09;;;;;;;3.20;1.40;;;;;;;-145.69;94.07;71406.38;5052815;28;20196;-75
2021/12/24 03:58:37;;;;;;;3.97;1.53;;;;;;;-145.69;93.89;71390.47;5052948;28;20290;-75
2021/12/24 04:01:05;;;;;;;5.43;1.50;;;;;;;-145.69;95.08;71416.31;5052771;28;20199;-75
2021/12/24 04:03:31;;;;;;;3.90;1.77;;;;;;;-145.69;96.02;71422.28;5052820;28;20205;-75
2021/12/24 04:05:58;;;;;;;4.37;1.60;;;;;;;-145.69;96.38;71426.28;5052758;28;20207;-75
2021/12/24 04:08:24;;;;;;;4.43;1.87;;;;;;;-145.69;96.56;71426.28;5052504;28;20206;-76
2021/12/24 04:10:51;;;;;;;3.17;1.80;;;;;;;-145.69;97.27;71434.22;5052624;28;20667;-76
2021/12/24 04:13:18;;;;;;;4.23;1.50;;;;;;;-145.69;97.20;71422.28;5052223;28;20227;-75
2021/12/24 04:15:46;;;;;;;4.67;1.47;;;;;;;-145.69;96.72;71422.28;5052782;28;20231;-75
2021/12/24 04:18:18;;;;;;;3.47;1.83;;;;;;;-145.69;96.43;71398.41;5052554;28;20204;-75
2021/12/24 04:26:12;;;;;;;2.13;1.47;;;;;;;-145.69;97.22;71406.38;5056832;28;20198;-75
2021/12/24 04:28:39;;;;;;;2.77;1.73;;;;;;;-145.69;95.93;71406.38;5056517;28;20205;-74
2021/12/24 04:31:07;;;;;;;4.63;1.80;;;;;;;-145.69;96.57;71418.31;5056612;28;20199;-75
2021/12/24 04:33:37;;;;;;;3.80;1.40;;;;;;;-145.69;96.89;71418.31;5056736;28;20622;-75
2021/12/24 04:36:19;;;;;;;4.07;1.70;;;;;;;-145.69;96.53;71414.34;5056661;28;20203;-75
2021/12/24 04:39:13;;;;;;;3.00;1.60;;;;;;;-145.69;96.60;71402.41;5056462;28;20561;-75
2021/12/24 04:52:57;;;;;;;4.00;1.60;;;;;;;-145.69;95.49;71394.44;5056426;28;20207;-74
2021/12/24 05:03:40;;;;;;;3.17;1.70;;;;;;;-145.69;96.14;71402.41;5056080;28;20206;-75
2021/12/24 05:06:13;;;;;;;2.77;1.97;;;;;;;-145.69;96.38;71406.38;5055938;28;20561;-74
2021/12/24 05:08:47;;;;;;;4.93;2.17;;;;;;;-145.69;96.08;71408.38;5055927;28;20195;-75
2021/12/24 05:11:14;;;;;;;2.47;1.80;;;;;;;-145.69;96.65;71406.38;5056060;28;20218;-75
2021/12/24 05:13:41;;;;;;;4.67;1.70;;;;;;;-145.69;96.93;71414.34;5055745;28;20235;-75
2021/12/24 05:16:19;;;;;;;2.70;1.53;;;;;;;-145.69;97.25;71424.28;5055989;28;20200;-75
2021/12/24 05:21:43;;;;;;;3.93;1.93;;;;;;;-145.69;96.84;71414.34;5033477;28;20275;-75
2021/12/24 05:24:13;;;;;;;3.97;1.80;;;;;;;-145.69;96.92;71420.31;5050211;28;20562;-76
2021/12/24 05:26:40;;;;;;;3.83;1.73;;;;;;;-145.69;95.91;71402.41;5056003;28;20203;-75
2021/12/24 05:29:08;;;;;;;3.17;1.50;;;;;;;-145.69;95.29;71398.41;5055457;28;20203;-76
2021/12/24 05:31:35;;;;;;;2.00;1.53;;;;;;;-145.69;95.78;71408.38;5055588;28;20205;-76
2021/12/24 05:34:04;;;;;;;5.60;1.87;;;;;;;-145.69;95.51;71418.31;5055659;28;20203;-75
2021/12/24 05:36:30;;;;;;;4.40;1.90;;;;;;;-145.69;96.84;71434.22;5055081;28;20200;-76
2021/12/24 05:38:57;;;;;;;2.50;1.60;;;;;;;-145.69;96.56;71434.22;5055392;28;20557;-77
2021/12/24 05:41:23;;;;;;;2.27;1.63;;;;;;;-145.69;96.98;71436.22;5055774;28;20204;-75
2021/12/24 05:43:51;;;;;;;4.00;1.93;;;;;;;-145.69;97.39;71450.16;5055340;28;20196;-75
2021/12/24 05:46:18;;;;;;;2.90;1.90;;;;;;;-145.69;98.24;71450.16;5055129;28;20646;-75
2021/12/24 05:48:45;;;;;;;3.97;2.10;;;;;;;-145.69;98.53;71454.13;5054943;28;20813;-75
2021/12/24 05:51:13;;;;;;;4.67;2.10;;;;;;;-145.69;98.85;71462.09;5055265;28;20204;-75
2021/12/24 05:53:40;;;;;;;4.40;1.90;;;;;;;-145.69;99.62;71472.03;5055317;28;20237;-75
2021/12/24 05:56:06;;;;;;;4.37;2.57;;;;;;;-145.69;99.73;71478.00;5055144;28;20239;-75
2021/12/24 05:58:33;;;;;;;10.37;3.63;;;;;;;-145.69;100.00;71462.09;5054751;28;20199;-75
2021/12/24 06:01:00;;;;;;;6.27;2.83;;;;;;;-145.69;99.66;71448.16;5054935;28;20199;-76
2021/12/24 06:03:26;;;;;;;8.77;3.53;;;;;;;-145.69;99.89;71456.13;5054947;28;20199;-75
2021/12/24 06:05:53;;;;;;;10.73;4.23;;;;;;;-145.69;99.75;71446.16;5054546;28;20199;-75
2021/12/24 06:08:21;;;;;;;14.60;4.47;;;;;;;-145.69;100.00;71450.16;5054592;28;20527;-75
2021/12/24 06:10:47;;;;;;;7.90;2.40;;;;;;;-145.69;100.00;71450.16;5054714;28;20203;-75
2021/12/24 06:13:14;;;;;;;5.23;2.87;;;;;;;-145.69;100.00;71450.16;5054591;28;20238;-76
2021/12/24 06:15:45;;;;;;;15.27;3.60;;;;;;;-145.69;100.00;71460.09;5054556;28;20800;-76
2021/12/24 06:18:21;;;;;;;7.97;3.43;;;;;;;-145.69;100.00;71474.03;5054617;28;20206;-75
2021/12/24 06:20:48;;;;;;;10.00;4.17;;;;;;;-145.69;100.00;71462.09;5054754;28;20203;-76
2021/12/24 06:23:15;;;;;;;6.57;2.90;;;;;;;-145.69;100.00;71460.09;5054503;28;20586;-76
2021/12/24 06:25:43;;;;;;;2.47;2.00;;;;;;;-145.69;100.00;71464.09;5054410;28;20683;-76
2021/12/24 06:28:09;;;;;;;6.63;2.70;;;;;;;-145.69;100.00;71458.09;5054615;28;20196;-76
2021/12/24 06:30:37;;;;;;;5.13;3.00;;;;;;;-145.69;100.00;71462.09;5054677;28;20210;-76
2021/12/24 06:33:04;;;;;;;5.40;2.73;;;;;;;-145.69;100.00;71483.97;5054571;28;20199;-76
2021/12/24 06:35:30;;;;;;;4.40;2.33;;;;;;;-145.69;100.00;71489.94;5054328;28;20254;-75
2021/12/24 06:37:57;;;;;;;4.23;2.30;;;;;;;-145.69;100.00;71501.88;5054249;28;20207;-76
2021/12/24 06:40:24;;;;;;;7.57;2.67;;;;;;;-145.69;100.00;71509.84;5053957;28;20204;-75
2021/12/24 06:42:52;;;;;;;4.27;2.10;;;;;;;-145.69;100.00;71493.94;5054520;28;20211;-75
2021/12/24 06:45:23;;;;;;;4.73;2.40;;;;;;;-145.69;100.00;71482.00;5054283;28;20207;-75
2021/12/24 06:47:50;;;;;;;3.27;2.00;;;;;;;-145.69;100.00;71485.97;5053388;28;20204;-75
2021/12/24 06:50:16;;;;;;;4.60;2.20;;;;;;;-145.69;100.00;71482.00;5053854;28;20238;-75
2021/12/24 06:52:43;;;;;;;5.00;2.23;;;;;;;-145.69;100.00;71474.03;5054039;28;20203;-76
2021/12/24 06:55:10;;;;;;;2.93;1.83;;;;;;;-145.69;100.00;71480.00;5054079;28;20234;-75
2021/12/24 06:57:37;;;;;;;4.22;2.13;;;;;;;-145.69;100.00;71485.97;5053928;28;20792;-75
2021/12/24 07:00:07;;;;;;;6.70;2.43;;;;;;;-145.69;100.00;71478.00;5053679;28;20286;-75
2021/12/24 07:02:33;;;;;;;3.97;2.20;;;;;;;-145.69;100.00;71466.06;5054052;28;20562;-75
2021/12/24 07:05:00;;;;;;;6.50;2.97;;;;;;;-145.69;100.00;71470.06;5053853;28;20226;-75
2021/12/24 07:07:26;;;;;;;5.00;2.50;;;;;;;-145.69;100.00;71482.00;5053727;28;20298;-75
2021/12/24 07:09:53;;;;;;;3.03;2.13;;;;;;;-145.69;100.00;71480.00;5053504;28;20286;-75
2021/12/24 07:12:20;;;;;;;4.43;2.50;;;;;;;-145.69;100.00;71483.97;5053612;28;20203;-76
2021/12/24 07:14:49;;;;;;;7.20;2.23;;;;;;;-145.69;100.00;71482.00;5053691;28;20223;-75
2021/12/24 07:17:17;;;;;;;5.53;2.67;;;;;;;-145.69;100.00;71482.00;5053421;28;20241;-76
2021/12/24 07:19:43;;;;;;;3.17;2.13;;;;;;;-145.69;100.00;71483.97;5053159;28;20191;-75
2021/12/24 07:22:12;;;;;;;4.30;2.07;;;;;;;-145.69;100.00;71466.06;5053337;28;20203;-76
2021/12/24 07:24:39;;;;;;;3.03;2.07;;;;;;;-145.69;100.00;71474.03;5053246;28;20195;-76
2021/12/24 07:27:06;;;;;;;3.97;2.07;;;;;;;-145.69;100.00;71468.06;5053546;28;20203;-75
2021/12/24 07:29:33;;;;;;;4.47;1.80;;;;;;;-145.69;100.00;71464.09;5052953;28;20663;-76
2021/12/24 07:31:59;;;;;;;3.43;2.07;;;;;;;-145.69;100.00;71462.09;5053115;28;20670;-75
2021/12/24 07:34:27;;;;;;;3.30;1.97;;;;;;;-145.69;100.00;71466.06;5052933;28;20207;-75
2021/12/24 07:36:54;;;;;;;4.17;2.30;;;;;;;-145.69;100.00;71448.16;5053322;28;20210;-75
2021/12/24 07:39:20;;;;;;;5.30;2.13;;;;;;;-145.69;100.00;71444.19;5053018;28;20196;-75
2021/12/24 07:41:47;;;;;;;5.03;2.57;;;;;;;-145.69;100.00;71458.09;5053218;28;20203;-75
2021/12/24 07:44:16;;;;;;;4.13;2.27;;;;;;;-145.69;100.00;71474.03;5053014;28;20199;-76
2021/12/24 07:46:46;;;;;;;3.80;2.13;;;;;;;-145.69;100.00;71485.97;5052504;28;20733;-78
2021/12/24 07:49:29;;;;;;;3.37;1.90;;;;;;;-145.69;100.00;71476.03;5053156;28;20200;-75
2021/12/24 07:54:41;;;;;;;4.80;2.37;;;;;;;-145.69;100.00;71462.09;5049359;28;20317;-75
2021/12/24 07:57:08;;;;;;;6.17;2.80;;;;;;;-145.69;100.00;71460.09;5052553;28;20287;-75
2021/12/24 07:59:37;;;;;;;8.37;3.00;;;;;;;-145.69;100.00;71462.09;5052538;28;20210;-75
2021/12/24 08:02:07;;;;;;;6.73;3.00;;;;;;;-145.69;100.00;71470.06;5052941;28;20230;-75
2021/12/24 08:04:33;;;;;;;5.03;2.20;;;;;;;-145.69;100.00;71462.09;5052888;28;20566;-77
2021/12/24 08:07:02;;;;;;;7.03;2.10;;;;;;;-145.69;100.00;71470.06;5052628;28;20199;-78
2021/12/24 08:09:29;;;;;;;4.07;2.10;;;;;;;-145.69;100.00;71462.09;5054915;28;20208;-78
2021/12/24 08:11:56;;;;;;;4.20;2.20;;;;;;;-145.69;100.00;71464.09;5052629;28;20206;-78
2021/12/24 08:14:23;;;;;;;3.60;1.80;;;;;;;-145.69;100.00;71472.03;5052021;28;20235;-77
2021/12/24 08:16:49;;;;;;;3.40;2.00;;;;;;;-145.69;100.00;71458.09;5052455;28;20227;-77
2021/12/24 08:19:18;;;;;;;4.13;2.10;;;;;;;-145.69;100.00;71478.00;5055194;28;20203;-78
2021/12/24 08:21:46;;;;;;;2.90;1.77;;;;;;;-145.69;100.00;71474.03;5052525;28;20646;-77
2021/12/24 08:24:14;;;;;;;3.03;1.80;;;;;;;-145.69;100.00;71485.97;5052697;28;20203;-77
2021/12/24 08:26:41;;;;;;;3.57;1.50;;;;;;;-145.69;100.00;71483.97;5051446;28;20198;-77
2021/12/24 08:29:08;;;;;;;3.00;1.97;;;;;;;-145.69;100.00;71487.97;5052752;28;20297;-77
2021/12/24 08:31:35;;;;;;;4.07;1.90;;;;;;;-145.69;100.00;71480.00;5052668;28;20204;-78
2021/12/24 08:34:02;;;;;;;3.30;1.93;;;;;;;-145.69;100.00;71470.06;5052773;28;20199;-79
2021/12/24 08:36:28;;;;;;;8.10;3.47;;;;;;;-145.69;100.00;71470.06;5051966;28;20223;-78
2021/12/24 08:38:55;;;;;;;5.13;2.37;;;;;;;-145.69;100.00;71474.03;5052823;28;20200;-77
2021/12/24 08:41:23;;;;;;;4.97;1.90;;;;;;;-145.69;100.00;71483.97;5052711;28;20199;-76
2021/12/24 08:43:49;;;;;;;4.07;2.37;;;;;;;-145.69;100.00;71491.94;5052634;28;20210;-78
2021/12/24 08:46:16;;;;;;;3.17;2.10;;;;;;;-145.69;100.00;71507.84;5052576;28;20310;-77
2021/12/24 08:48:43;;;;;;;2.67;1.77;;;;;;;-145.69;100.00;71519.81;5051830;28;20196;-78
2021/12/24 08:51:10;;;;;;;3.00;1.60;;;;;;;-145.69;100.00;71517.81;5052535;28;20207;-77
2021/12/24 08:53:36;;;;;;;2.30;1.70;;;;;;;-145.69;100.00;71521.78;5052568;28;20282;-78
2021/12/24 08:56:03;;;;;;;2.27;1.60;;;;;;;-145.69;100.00;71521.78;5051178;28;20230;-78
2021/12/24 08:58:32;;;;;;;2.17;1.40;;;;;;;-145.69;100.00;71511.84;5051989;28;20553;-78
2021/12/24 09:00:59;;;;;;;3.40;1.70;;;;;;;-145.69;100.00;71509.84;5051804;28;20254;-78
2021/12/24 09:03:25;;;;;;;2.27;1.90;;;;;;;-145.69;100.00;71517.81;5051975;28;20547;-77
2021/12/24 09:05:52;;;;;;;3.37;1.63;;;;;;;-145.69;100.00;71507.84;5052263;28;20200;-77
2021/12/24 09:08:19;;;;;;;4.07;1.63;;;;;;;-145.69;100.00;71513.81;5050713;28;20200;-77
2021/12/24 09:10:45;;;;;;;2.57;1.23;;;;;;;-145.69;100.00;71503.88;5052162;28;20543;-79
2021/12/24 09:13:12;;;;;;;3.33;1.23;;;;;;;-145.69;100.00;71489.94;5055569;28;20793;-78
2021/12/24 09:15:40;;;;;;;2.23;1.70;;;;;;;-145.69;100.00;71474.03;5054619;28;20234;-79
2021/12/24 09:18:07;;;;;;;2.43;1.50;;;;;;;-145.69;100.00;71482.00;5055197;28;20673;-78
2021/12/24 09:20:39;;;;;;;1.67;1.10;;;;;;;-145.69;100.00;71480.00;5055203;28;20192;-78
2021/12/24 09:23:08;;;;;;;1.23;1.00;;;;;;;-145.69;100.00;71468.06;5055549;28;20207;-78
2021/12/24 09:25:35;;;;;;;0.80;0.80;;;;;;;-145.69;100.00;71466.06;5055910;28;20207;-79
2021/12/24 09:28:02;;;;;;;4.20;1.13;;;;;;;-145.69;100.00;71462.09;5055352;28;20214;-78
2021/12/24 09:30:29;;;;;;;0.90;0.80;;;;;;;-145.69;100.00;71452.16;5055210;28;20191;-78
2021/12/24 09:32:57;;;;;;;1.13;0.80;;;;;;;-145.69;100.00;71458.09;5055770;28;20207;-78
2021/12/24 09:35:26;;;;;;;1.43;1.10;;;;;;;-145.69;100.00;71454.13;5055542;28;20654;-78
2021/12/24 09:37:53;;;;;;;1.10;1.00;;;;;;;-145.69;100.00;71446.16;5055435;28;20196;-79
2021/12/24 09:40:20;;;;;;;1.50;1.10;;;;;;;-145.69;100.00;71442.19;5055935;28;20202;-79
2021/12/24 09:42:49;;;;;;;1.10;0.90;;;;;;;-145.69;100.00;71430.25;5054526;28;20282;-78
2021/12/24 09:45:17;;;;;;;0.93;0.80;;;;;;;-145.69;100.00;71414.34;5052125;28;20195;-78
2021/12/24 09:47:46;;;;;;;1.33;0.80;;;;;;;-145.69;100.00;71402.41;5053599;28;20199;-78
2021/12/24 09:50:16;;;;;;;0.80;0.77;;;;;;;-145.69;100.00;71392.44;5055503;28;20290;-81
2021/12/24 09:52:45;;;;;;;1.70;0.80;;;;;;;-145.69;100.00;71378.50;5055557;28;20202;-79
2021/12/24 09:55:14;;;;;;;1.13;0.87;;;;;;;-145.69;100.00;71366.56;5055272;28;20234;-79
2021/12/24 09:57:41;;;;;;;1.37;0.80;;;;;;;-145.69;100.00;71372.53;5055086;28;20196;-79
2021/12/24 10:00:10;;;;;;;0.70;0.50;;;;;;;-145.69;100.00;71374.53;5055424;28;20255;-79
2021/12/24 10:02:41;;;;;;;1.00;0.90;;;;;;;-145.69;100.00;71372.53;5055613;28;20242;-79
2021/12/24 10:08:07;;;;;;;0.70;0.60;;;;;;;-145.69;100.00;71360.59;5172255;27;20552;-77
2021/12/24 10:10:35;;;;;;;1.40;0.90;;;;;;;-145.69;100.00;71354.63;5166854;27;20212;-77
2021/12/24 10:13:29;;;;;;;1.10;0.88;;;;;;;-145.69;100.00;71366.56;5151385;27;20523;-77
2021/12/24 10:15:58;;;;;;;4.50;0.90;;;;;;;-145.69;100.00;71362.59;5138957;27;20215;-77
2021/12/24 10:18:30;;;;;;;1.27;0.70;;;;;;;-145.69;99.49;71362.59;5149317;27;20231;-76
2021/12/24 10:21:03;;;;;;;2.20;1.10;;;;;;;-145.69;98.93;71358.63;5151939;27;20196;-77
2021/12/24 10:23:41;;;;;;;0.50;0.50;;;;;;;-145.69;98.71;71356.63;5136181;27;20224;-79
2021/12/24 10:26:15;;;;;;;3.20;1.30;;;;;;;-145.69;100.00;71354.63;5131013;27;20304;-78
2021/12/24 10:28:50;;;;;;;2.30;0.90;;;;;;;-145.69;100.00;71352.66;5131105;27;20208;-77
2021/12/24 10:31:18;;;;;;;1.10;1.00;;;;;;;-145.69;100.00;71350.66;5147721;27;20561;-77
2021/12/24 10:34:08;;;;;;;0.67;0.60;;;;;;;-145.69;99.07;71344.69;5172452;27;20195;-77
2021/12/24 10:36:35;;;;;;;0.60;0.60;;;;;;;-145.69;100.00;71354.63;5172459;27;20199;-76
2021/12/24 10:39:03;;;;;;;0.70;0.70;;;;;;;-145.69;99.67;71350.66;5172256;27;20202;-76
2021/12/24 10:41:30;;;;;;;0.80;0.70;;;;;;;-145.69;100.00;71360.59;5162004;27;20224;-77
2021/12/24 10:44:15;;;;;;;0.90;0.80;;;;;;;-145.69;100.00;71362.59;5151346;27;20196;-77
2021/12/24 10:46:57;;;;;;;0.70;0.70;;;;;;;-145.69;100.00;71366.56;5151226;27;20230;-76
2021/12/24 10:49:37;;;;;;;0.70;0.70;;;;;;;-145.69;100.00;71374.53;5151260;27;20200;-77
2021/12/24 10:52:14;;;;;;;1.63;0.70;;;;;;;-145.69;100.00;71382.50;5165548;27;20649;-76
2021/12/24 10:54:57;;;;;;;3.70;1.40;;;;;;;-145.69;100.00;71396.44;5171938;27;20199;-76
2021/12/24 10:57:25;;;;;;;1.33;0.90;;;;;;;-145.69;100.00;71398.41;5172123;27;20230;-77
2021/12/24 10:59:54;;;;;;;1.77;1.00;;;;;;;-145.69;100.00;71400.41;5171844;27;20199;-76
2021/12/24 11:02:23;;;;;;;2.53;0.83;;;;;;;-145.69;100.00;71400.41;5154866;27;20196;-76
2021/12/24 11:04:51;;;;;;;4.33;2.10;;;;;;;-145.69;100.00;71390.47;5150841;27;20291;-76
2021/12/24 11:07:38;;;;;;;1.10;0.80;;;;;;;-145.69;100.00;71390.47;5150604;27;20240;-77
2021/12/24 11:10:12;;;;;;;1.77;1.03;;;;;;;-145.69;100.00;71390.47;5150830;27;20265;-77
2021/12/24 11:12:41;;;;;;;2.23;0.97;;;;;;;-145.69;100.00;71388.47;5168137;27;20557;-76
2021/12/24 11:15:19;;;;;;;4.83;1.80;;;;;;;-145.69;100.00;71392.44;5171270;27;20543;-77
2021/12/24 11:17:46;;;;;;;1.90;1.00;;;;;;;-145.69;100.00;71398.41;5167068;27;20199;-76
2021/12/24 11:20:13;;;;;;;3.23;1.40;;;;;;;-145.69;100.00;71390.47;5157920;27;20666;-77
2021/12/24 11:22:51;;;;;;;1.43;1.10;;;;;;;-145.69;100.00;71376.53;5140120;27;20199;-76
2021/12/24 11:25:20;;;;;;;0.70;0.70;;;;;;;-145.69;100.00;71362.59;5136831;27;20682;-77
2021/12/24 11:27:47;;;;;;;3.37;1.57;;;;;;;-145.69;100.00;71346.69;5136473;27;20225;-76
2021/12/24 11:30:14;;;;;;;1.20;0.87;;;;;;;-145.69;100.00;71334.75;5136873;27;20219;-76
2021/12/24 11:32:41;;;;;;;0.83;0.80;;;;;;;-145.69;100.00;71334.75;5153619;27;20192;-76
2021/12/24 11:35:09;;;;;;;1.60;1.10;;;;;;;-145.69;100.00;71340.72;5157177;27;20200;-76
2021/12/24 11:37:36;;;;;;;1.40;1.00;;;;;;;-145.69;100.00;71330.75;5157212;27;20196;-76
2021/12/24 11:40:05;;;;;;;3.43;1.47;;;;;;;-145.69;100.00;71338.72;5157138;27;20632;-76
2021/12/24 11:42:38;;;;;;;1.40;0.80;;;;;;;-145.69;100.00;71332.75;5142217;27;20200;-76
2021/12/24 11:45:06;;;;;;;1.80;1.13;;;;;;;-145.69;100.00;71316.84;5136586;27;20203;-75
2021/12/24 11:47:35;;;;;;;1.07;0.90;;;;;;;-145.69;100.00;71304.91;5136260;27;20220;-76
2021/12/24 11:50:02;;;;;;;0.67;0.67;;;;;;;-145.69;100.00;71281.00;5136509;27;20207;-76
2021/12/24 11:52:29;;;;;;;7.73;3.07;;;;;;;-145.69;100.00;71269.06;5148881;27;20196;-76
2021/12/24 11:54:57;;;;;;;1.77;1.10;;;;;;;-145.69;100.00;71259.13;5156962;27;20200;-76
2021/12/24 11:57:24;;;;;;;4.50;1.00;;;;;;;-145.69;100.00;71265.09;5157167;27;20200;-76
2021/12/24 11:59:52;;;;;;;1.93;1.10;;;;;;;-145.69;100.00;71281.00;5156983;27;20203;-76
2021/12/24 12:02:35;;;;;;;1.10;0.90;;;;;;;-145.69;100.00;71286.97;5146564;27;20196;-76
2021/12/24 12:05:13;;;;;;;2.40;1.33;;;;;;;-145.69;100.00;71283.00;5135983;27;20556;-76
2021/12/24 12:07:40;;;;;;;3.47;1.30;;;;;;;-145.69;100.00;71294.94;5135683;27;20240;-76
2021/12/24 12:10:07;;;;;;;1.87;1.40;;;;;;;-145.69;100.00;71285.00;5136165;27;20595;-76
2021/12/24 12:12:34;;;;;;;0.90;0.70;;;;;;;-145.69;100.00;71283.00;5147214;27;20208;-76
2021/12/24 12:15:27;;;;;;;1.80;0.90;;;;;;;-145.69;100.00;71285.00;5117810;27;20210;-76
2021/12/24 12:17:55;;;;;;;0.67;0.53;;;;;;;-145.69;100.00;71286.97;5106885;27;20239;-76
2021/12/24 12:20:46;;;;;;;0.67;0.67;;;;;;;-145.69;100.00;71269.06;5130726;27;20549;-76
2021/12/24 12:23:45;;;;;;;0.40;0.40;;;;;;;-145.69;100.00;71267.09;5135616;27;20643;-76
2021/12/24 12:26:33;;;;;;;0.90;0.83;;;;;;;-145.69;100.00;71257.13;5135704;27;20200;-76
2021/12/24 12:29:19;;;;;;;2.30;1.30;;;;;;;-145.69;100.00;71267.09;5137168;27;20203;-76
2021/12/24 12:31:52;;;;;;;1.17;0.90;;;;;;;-145.69;100.00;71273.06;5156648;27;20206;-76
2021/12/24 12:34:50;;;;;;;1.40;1.00;;;;;;;-145.69;100.00;71269.06;5156283;27;20710;-76
2021/12/24 12:37:18;;;;;;;5.50;2.63;;;;;;;-145.69;100.00;71281.00;5155994;27;20658;-76
2021/12/24 12:39:46;;;;;;;1.17;0.80;;;;;;;-145.69;100.00;71271.06;5147903;27;20196;-76
2021/12/24 12:42:16;;;;;;;2.97;1.50;;;;;;;-145.69;100.00;71267.09;5135470;27;20200;-76
2021/12/24 12:44:46;;;;;;;0.90;0.60;;;;;;;-145.69;100.00;71267.09;5135173;27;20219;-76
2021/12/24 12:47:16;;;;;;;1.63;1.37;;;;;;;-145.69;100.00;71277.03;5135217;27;20249;-76
2021/12/24 12:49:44;;;;;;;1.13;1.00;;;;;;;-145.69;100.00;71279.03;5142849;27;20192;-77